Artesian, Iowa
Current Conditions -  °F | °C
As of 11:54 PM on Sunday 19 Oct 2014 (Local Time) from KALO Reporting Station
Clear Clear  
Wind Chill: 11°   Ceiling: Unl
Heat Index: 11°   Visibility: 10mi
Dew Point:   Wind: 9mph
Humidity: 77%   Direction: 260°W
Pressure: 29.86"   Gusts: NA
Location:  42.787°N, 92.4284°W
Report Text: KALO 200454Z 26008KT 10SM CLR 11/07 A2986 RMK AO2 SLP112 T01110072
Loading
Personal Weather Stations






























Interactive Weather Map
Tropical Storm Tracking
New forecast layout! Learn more

10-Day Weather Forecast

Advertisements
Track Severe Weather on mobile